Terminal Aerodrome Forecast
Issued by NWS Sterling, VA

Current Version | Previous Version | Text Only | Print | Product List | Glossary Off
Versions: 1 2 3 4 5 6 7 8 9 10 11 12 13 14 15 16 17 18 19

000
FTUS41 KLWX 170622 AAA
TAFMRB
TAF AMD
KMRB 170622Z 1706/1806 00000KT P6SM SKC
     FM171700 15006KT P6SM OVC090
     FM172000 15007KT P6SM OVC008
     FM172100 15007KT 2SM -SN OVC008
     FM172200 15007KT 1SM -SN OVC008
     FM180300 18004KT P6SM OVC015=

USA.gov is the U.S. government's official web portal to all federal, state and local government web resources and services.